x

New London Ledge Ct - Ledge Light Weather Station (ldlc3) Weather Station

3:45pm - Sat 3rd Dec 2016 All times are EST. -5 hours from GMT.

  • Wind
    18mph, 25mph gusts
  • 空気 Temp 44°f
  • Sea Pressure 1014.2mb
  • New London Ledge Ct - Ledge Light Weather Station
  • New London Ledge Ct - Ledge Light Weather Station

More Historic Weather Station data

Upgrade to MSW Pro to gain access to the past 30 days of data for over 8000 Wavebouys and Weather Stations around the globe.

Join Pro

Comparision Forecast

View Surf forecast
   
Sat 12/03 3:45pm 18 25 mph 1014.2mb 44f
3:30pm 30 38 mph 1013.6mb 44f
3:15pm 28 38 mph 1013.3mb 44f
3:00pm 23 33 mph 1013.4mb 44f
2:45pm 24 31 mph 1013.2mb 44f
2:30pm 16 20 mph 1013.1mb 45f
2:15pm 25 33 mph 1012.6mb 44f
2:00pm 25 38 mph 1012.5mb 45f
1:45pm 26 34 mph 1012.4mb 45f
1:30pm 30 34 mph 1012.2mb 46f
1:15pm 26 39 mph 1012.3mb 46f
1:00pm 30 39 mph 1012mb 46f
12:45pm 28 33 mph 1012mb 46f
12:30pm 24 32 mph 1012mb 46f
12:15pm 24 37 mph 1012mb 46f
12:00pm 24 31 mph 1012.1mb 46f
11:45am 26 36 mph 1012.1mb 46f
11:30am 24 31 mph 1012.2mb 45f
11:15am 28 37 mph 1012.3mb 45f
11:00am 28 37 mph 1012mb 45f
10:45am 25 32 mph 1012.3mb 45f
10:30am 25 33 mph 1012.2mb 44f
10:15am 26 34 mph 1012.2mb 44f
10:00am 25 31 mph 1012.5mb 44f
9:45am 29 40 mph 1012.2mb 44f
9:30am 28 37 mph 1012.2mb 43f
9:15am 26 33 mph 1012.3mb 43f
9:00am 21 31 mph 1012.2mb 43f
8:45am 24 38 mph 1012.1mb 42f
8:30am 22 31 mph 1012mb 43f
8:15am 23 39 mph 1011.7mb 43f
8:00am 23 33 mph 1011.5mb 42f
7:45am 25 31 mph 1011.2mb 42f
7:30am 23 30 mph 1011mb 42f
7:15am 21 26 mph 1010.9mb 41f
7:00am 18 29 mph 1010.8mb 41f
6:45am 20 28 mph 1010.6mb 42f
6:30am 20 28 mph 1010.6mb 42f
6:15am 20 25 mph 1010.4mb 42f
6:00am 25 33 mph 1010.1mb 42f
5:45am 23 31 mph 1010mb 42f
5:30am 22 30 mph 1009.9mb 42f
5:15am 22 31 mph 1009.9mb 42f
5:00am 21 26 mph 1010mb 42f
4:45am 21 29 mph 1009.9mb 42f
4:30am 18 26 mph 1010mb 42f
4:15am 18 23 mph 1009.8mb 42f
4:00am 18 23 mph 1009.6mb 42f
3:45am 15 18 mph 1009.8mb 42f
3:30am 13 17 mph 1009.7mb 42f
3:15am 15 18 mph 1009.6mb 42f
3:00am 15 18 mph 1009.5mb 42f
2:45am 18 23 mph 1009.4mb 43f
2:30am 18 21 mph 1009.4mb 43f
2:15am 20 24 mph 1009.1mb 43f
2:00am 20 24 mph 1009mb 43f
1:45am 17 22 mph 1009mb 43f
1:30am 21 23 mph 1008.9mb 43f
1:15am 17 24 mph 1009.1mb 43f
1:00am 20 24 mph 1008.8mb 43f
12:45am 18 22 mph 1008.7mb 43f
12:30am 18 23 mph 1008.7mb 43f
12:15am 17 21 mph 1008.8mb 43f
12:00am 16 21 mph 1009mb 43f
Fri 12/02 6:30pm 17 22 mph 1008.8mb 48f
6:15pm 16 21 mph 1008.7mb 48f
6:00pm 18 23 mph 1008.5mb 49f
5:45pm 21 26 mph 1008.5mb 49f
5:30pm 17 21 mph 1008.5mb 49f
5:15pm 16 22 mph 1008.5mb 49f
5:00pm 20 24 mph 1008.5mb 49f
4:15pm 15 20 mph 1008.4mb 50f
4:00pm 16 20 mph 1008.3mb 50f
3:45pm 14 16 mph 1008.3mb 50f
3:30pm 13 15 mph 1008.3mb 50f
3:15pm 13 16 mph 1008.2mb 50f
3:00pm 14 20 mph 1008.1mb 50f
2:45pm 16 20 mph 1008.1mb 50f
2:30pm 20 24 mph 1007.9mb 50f
2:15pm 15 20 mph 1008mb 50f
2:00pm 21 26 mph 1007.9mb 50f
1:45pm 15 20 mph 1007.9mb 49f
1:30pm 17 20 mph 1008mb 48f
1:15pm 18 22 mph 1008.1mb 47f
1:00pm 18 22 mph 1008.3mb 47f
12:45pm 21 23 mph 1008.4mb 47f
12:30pm 21 23 mph 1008.5mb 47f
12:15pm 22 25 mph 1008.7mb 47f
12:00pm 21 24 mph 1008.9mb 47f
11:45am 21 24 mph 1009mb 46f
11:30am 22 24 mph 1009.1mb 46f
11:15am 17 20 mph 1009.5mb 47f
11:00am 14 17 mph 1009.6mb 46f
10:45am 17 21 mph 1009.8mb 46f
10:30am 18 24 mph 1010mb 46f
10:15am 20 22 mph 1010.2mb 45f
10:00am 21 24 mph 1010.2mb 44f
9:45am 20 23 mph 1010.2mb 44f
9:30am 22 25 mph 1009.9mb 44f
9:15am 21 25 mph 1009.8mb 43f
9:00am 18 23 mph 1009.8mb 43f
8:45am 16 21 mph 1010mb 42f
8:30am 16 22 mph 1010.1mb 41f
8:15am 18 23 mph 1010mb 41f
8:00am 18 22 mph 1010mb 41f
7:45am 20 24 mph 1009.7mb 41f
7:30am 20 24 mph 1009.5mb 42f
7:15am 22 25 mph 1009.3mb 42f
7:00am 21 24 mph 1009.3mb 42f
6:45am 22 25 mph 1009.2mb 42f
6:30am 20 23 mph 1009.2mb 42f
6:15am 18 21 mph 1009.2mb 42f
6:00am 16 21 mph 1009.2mb 42f
5:45am 14 17 mph 1009.2mb 42f
5:30am 14 16 mph 1009.1mb 42f
5:15am 15 18 mph 1009.1mb 41f
5:00am 16 20 mph 1008.8mb 42f
4:45am 18 23 mph 1008.6mb 42f
4:30am 17 22 mph 1008.6mb 42f
4:15am 17 23 mph 1008.7mb 43f
4:00am 20 24 mph 1008.5mb 43f
3:45am 21 26 mph 1008.4mb 43f
3:30am 23 26 mph 1008.3mb 44f
3:15am 23 31 mph 1008.1mb 44f
3:00am 24 29 mph 1008.2mb 44f
2:45am 21 25 mph 1008.2mb 44f
2:30am 24 30 mph 1008.1mb 45f
2:15am 22 26 mph 1008mb 45f
2:00am 20 24 mph 1008mb 44f
1:45am 20 23 mph 1008mb 44f
1:30am 18 23 mph 1007.9mb 44f
1:15am 18 23 mph 1007.6mb 43f
1:00am 16 18 mph 1007.4mb 44f
12:45am 16 18 mph 1007.3mb 44f
12:30am 16 20 mph 1007.1mb 44f
12:15am 18 23 mph 1006.8mb 44f
12:00am 18 22 mph 1006.8mb 44f
Thu 12/01 6:45pm 24 31 mph 1004.2mb 50f
6:30pm 21 25 mph 1004.2mb 50f
6:15pm 20 24 mph 1003.9mb 50f
6:00pm 18 24 mph 1003.6mb 50f
5:45pm 23 32 mph 1003.4mb 50f
5:30pm 22 28 mph 1003.4mb 50f
5:15pm 21 25 mph 1003.3mb 50f
5:00pm 23 29 mph 1003.1mb 51f
4:45pm 24 33 mph 1002.8mb 51f
4:30pm 26 33 mph 1002.4mb 51f
4:15pm 24 30 mph 1002.2mb 52f
4:00pm 26 32 mph 1002mb 52f
3:45pm 24 31 mph 1001.8mb 53f
3:30pm 24 29 mph 1001.5mb 54f
3:15pm 24 29 mph 1001.1mb 54f
3:00pm 23 30 mph 1000.9mb 55f
2:45pm 21 25 mph 1000.7mb 55f
2:30pm 22 26 mph 1000.4mb 54f
2:15pm 25 29 mph 1000.1mb 54f
2:00pm 26 31 mph 1000mb 54f
12:45pm 23 26 mph 999.7mb 55f
12:30pm 22 26 mph 999.8mb 54f
12:15pm 22 25 mph 999.7mb 54f
12:00pm 18 22 mph 1000mb 54f
11:45am 21 23 mph 1000.3mb 54f
11:30am 21 24 mph 1000.3mb 54f
11:15am 20 24 mph 1000.4mb 53f
11:00am 22 25 mph 1000.4mb 53f
10:45am 16 21 mph 1000.6mb 54f
10:30am 22 25 mph 1000.7mb 55f
10:15am 15 20 mph 1000.9mb 55f
10:00am 17 21 mph 1000.8mb 55f
9:45am 13 14 mph 1000.7mb 54f
9:30am 13 15 mph 1000.4mb 53f
9:15am 14 16 mph 1000.3mb 53f
9:00am 15 18 mph 1000mb 52f
8:45am 16 20 mph 999.7mb 52f
8:30am 17 21 mph 999.7mb 51f
8:15am 16 18 mph 999.4mb 51f
8:00am 15 18 mph 998.9mb 52f
7:45am 13 15 mph 998.6mb 51f
7:30am 10 13 mph 998.2mb 52f
7:15am 10 14 mph 997.9mb 52f
7:00am 8 11 mph 997.9mb 53f
6:45am 10 13 mph 997.7mb 53f
6:30am 13 16 mph 997.7mb 55f
6:15am 17 21 mph 997.5mb 55f
6:00am 31 40 mph 997.6mb 58f
5:45am 24 29 mph 996.6mb 58f
5:30am 22 29 mph 996.8mb 57f
5:15am 21 24 mph 996.3mb 57f
5:00am 22 25 mph 996.3mb 57f
4:45am 20 23 mph 996mb 57f
4:30am 18 23 mph 996.1mb 57f
4:15am 24 28 mph 996mb 58f
4:00am 24 26 mph 996.3mb 58f
3:45am 22 25 mph 995.9mb 58f
3:30am 23 29 mph 996.2mb 59f
3:15am 23 25 mph 996.8mb 58f
3:00am 22 26 mph 996.9mb 58f
2:45am 10 11 mph 997.5mb 56f
2:30am 14 15 mph 997.6mb 53f
2:15am 16 18 mph 997.9mb 54f
2:00am 16 18 mph 998.8mb 53f
1:45am 17 18 mph 999.3mb 52f
1:30am 17 21 mph 999.9mb 53f
1:15am 21 23 mph 1000mb 52f
1:00am 20 23 mph 1000.3mb 52f
12:45am 21 25 mph 1000.9mb 51f
12:30am 29 33 mph 1001.1mb 51f
12:15am 28 33 mph 1001.3mb 51f
12:00am 24 30 mph 1002.3mb 51f
Wed 11/30 6:45pm 28 34 mph 1009.7mb 50f
6:15pm 33 38 mph 1009.1mb 50f
6:00pm 30 36 mph 1009.7mb 50f
5:45pm 28 31 mph 1010.1mb 51f
5:30pm 26 31 mph 1010.6mb 51f
5:15pm 29 36 mph 1010.1mb 52f
5:00pm 24 29 mph 1011.3mb 52f
4:45pm 29 33 mph 1010.7mb 52f
4:30pm 24 26 mph 1011.1mb 52f
4:15pm 24 29 mph 1010.9mb 52f
4:00pm 22 25 mph 1011.5mb 52f
3:45pm 23 25 mph 1011.2mb 52f
3:30pm 23 25 mph 1011.3mb 52f
3:15pm 23 25 mph 1011.3mb 53f
3:00pm 24 28 mph 1011.2mb 53f
2:45pm 23 25 mph 1011.1mb 54f
2:30pm 20 23 mph 1011.3mb 55f
2:15pm 18 22 mph 1010.6mb 55f
2:00pm 15 16 mph 1011.4mb 55f
1:45pm 14 15 mph 1011.5mb 55f
1:30pm 11 13 mph 1012mb 55f
1:15pm 8 9 mph 1012.7mb 57f
1:00pm 5 8 mph 1012.5mb 57f
12:45pm 7 9 mph 1012.4mb 56f
12:30pm 6 9 mph 1012.6mb 56f
12:15pm 8 10 mph 1012.5mb 56f
12:00pm 8 11 mph 1012.1mb 56f
11:45am 9 11 mph 1012.2mb 55f
11:30am 8 10 mph 1012.5mb 55f
11:15am 8 9 mph 1012.5mb 54f
11:00am 5 6 mph 1013.2mb 54f
10:45am 5 6 mph 1013.5mb 53f
10:30am 3 5 mph 1014.3mb 53f
10:15am 3 5 mph 1014.3mb 53f
10:00am 3 5 mph 1014.2mb 53f
9:45am 1 2 mph 1015.1mb 53f
9:30am 5
mph
1014.1mb 53f
9:15am  -  1 mph 1014.3mb 53f
9:00am  -  1 mph 1014.3mb 53f
8:45am 2 3 mph 1014.1mb 53f
8:30am 3
mph
1014.1mb 53f
8:15am 5 6 mph 1014.1mb 53f
8:00am 7 8 mph 1013.6mb 53f
7:45am 5 6 mph 1013.6mb 53f
7:30am 3
mph
1013.5mb 53f
7:15am 3 5 mph 1013.5mb 53f
7:00am 3
mph
1013.2mb 54f
6:45am 5 6 mph 1013.1mb 55f
6:30am 7
mph
1013.3mb 54f
6:15am 3 5 mph 1013.2mb 54f
6:00am 2 3 mph 1013.1mb 54f
5:45am 9 10 mph 1013.2mb 55f
5:30am 8 10 mph 1013.2mb 55f
5:15am 3 5 mph 1013.1mb 55f
5:00am 3 5 mph 1013.1mb 55f
4:45am 7 9 mph 1012.7mb 55f
4:30am 10 13 mph 1012.5mb 56f
4:15am 11 13 mph 1012.2mb 56f
4:00am 14 16 mph 1011.9mb 56f
3:45am 14 16 mph 1011.9mb 56f
3:30am 14 17 mph 1012.2mb 56f
3:15am 17 18 mph 1012.2mb 55f
3:00am 18 21 mph 1011.9mb 54f
2:45am 20 21 mph 1011.9mb 53f
2:30am 20 21 mph 1011.8mb 53f
2:15am 17 20 mph 1011.5mb 53f
2:00am 14 15 mph 1011.6mb 54f
1:45am 11 13 mph 1011.6mb 53f
1:30am 11 13 mph 1011.3mb 53f
1:15am 10
mph
1011mb 54f
1:00am 10 11 mph 1010.8mb 55f
12:45am 13 15 mph 1010.7mb 55f
12:30am 15 18 mph 1010.7mb 55f
12:15am 16 17 mph 1010.7mb 55f
12:00am 17 20 mph 1010.7mb 56f